Time;durP1;ratioP1;P1;durP2;ratioP2;P2;SDS_P1;SDS_P2;PMS_P1;PMS_P2;Temp;Humidity;BMP_temperature;BMP_pressure;BME280_temperature;BME280_humidity;BME280_pressure;Samples;Min_cycle;Max_cycle;Signal;HPM_P1;HPM_P2
2022/12/23 00:00:57;;;;;;;0.50;0.50;;;;;;;4.41;96.03;98544.25;5068580;28;20484;-71
2022/12/23 00:03:23;;;;;;;0.50;0.50;;;;;;;4.65;96.39;98570.50;5067038;28;20025;-70
2022/12/23 00:05:49;;;;;;;0.50;0.50;;;;;;;4.58;96.16;98574.84;5068575;28;20028;-70
2022/12/23 00:08:14;;;;;;;0.50;0.50;;;;;;;4.59;95.97;98571.44;5068746;28;20021;-70
2022/12/23 00:10:40;;;;;;;0.98;0.98;;;;;;;4.49;95.63;98579.28;5068546;28;20079;-70
2022/12/23 00:15:50;;;;;;;0.50;0.50;;;;;;;4.36;95.41;98579.44;5068604;28;20059;-71
2022/12/23 00:18:15;;;;;;;0.50;0.50;;;;;;;4.31;95.60;98576.91;5068360;28;20029;-69
2022/12/23 00:20:41;;;;;;;0.50;0.50;;;;;;;4.40;95.63;98578.53;5066921;28;20021;-71
2022/12/23 00:23:06;;;;;;;0.50;0.50;;;;;;;4.28;95.66;98583.84;5068507;28;20025;-71
2022/12/23 00:25:39;;;;;;;0.50;0.50;;;;;;;4.29;95.63;98590.66;5068280;28;20052;-72
2022/12/23 00:28:16;;;;;;;0.50;0.50;;;;;;;4.23;95.72;98591.59;5068326;28;20029;-70
2022/12/23 00:30:57;;;;;;;0.50;0.50;;;;;;;4.17;95.47;98601.94;5068121;28;20052;-71
2022/12/23 00:33:25;;;;;;;0.60;0.60;;;;;;;4.13;95.61;98593.41;5068138;28;20021;-71
2022/12/23 00:35:51;;;;;;;0.60;0.60;;;;;;;4.07;95.07;98596.06;5068095;28;20196;-72
2022/12/23 00:43:58;;;;;;;0.50;0.50;;;;;;;4.06;95.75;98600.31;5068100;28;20043;-69
2022/12/23 00:46:23;;;;;;;0.47;0.47;;;;;;;4.02;95.65;98606.38;5067854;28;20056;-73
2022/12/23 00:51:33;;;;;;;0.50;0.50;;;;;;;4.03;95.78;98615.78;5068114;28;20036;-73
2022/12/23 00:53:58;;;;;;;0.50;0.50;;;;;;;4.02;95.52;98613.22;5067608;28;20449;-73
2022/12/23 00:56:24;;;;;;;0.60;0.60;;;;;;;3.94;95.59;98614.16;5067683;28;20054;-74
2022/12/23 00:58:49;;;;;;;0.50;0.50;;;;;;;3.92;95.68;98625.28;5067476;28;20017;-72
2022/12/23 01:06:43;;;;;;;0.50;0.50;;;;;;;3.83;94.90;98642.47;5067734;28;20032;-72
2022/12/23 01:09:08;;;;;;;0.50;0.50;;;;;;;3.79;95.00;98648.53;5067336;28;20021;-73
2022/12/23 01:11:34;;;;;;;0.50;0.50;;;;;;;3.78;95.20;98648.53;5067359;28;20029;-73
2022/12/23 01:13:59;;;;;;;0.50;0.50;;;;;;;3.78;95.02;98648.53;5067410;28;20051;-73
2022/12/23 01:16:25;;;;;;;0.50;0.50;;;;;;;3.74;95.36;98652.00;5067225;28;20025;-73
2022/12/23 01:18:50;;;;;;;0.50;0.50;;;;;;;3.77;95.44;98659.69;5067041;28;20052;-73
2022/12/23 01:21:16;;;;;;;0.50;0.50;;;;;;;3.71;95.89;98663.13;5066961;28;20043;-73
2022/12/23 01:23:41;;;;;;;0.50;0.50;;;;;;;3.74;95.56;98662.28;5067112;28;20032;-73
2022/12/23 01:26:07;;;;;;;0.50;0.50;;;;;;;3.73;95.62;98661.41;5067076;28;20025;-72
2022/12/23 01:28:33;;;;;;;0.50;0.50;;;;;;;3.69;95.95;98657.19;5066848;28;20036;-71
2022/12/23 01:31:00;;;;;;;0.50;0.50;;;;;;;3.64;95.79;98654.66;5066827;28;20023;-73
2022/12/23 01:33:26;;;;;;;0.50;0.50;;;;;;;3.65;95.74;98660.63;5066842;28;20483;-72
2022/12/23 01:36:08;;;;;;;0.50;0.50;;;;;;;3.67;95.67;98672.59;5065415;28;20033;-72
2022/12/23 01:38:33;;;;;;;0.50;0.50;;;;;;;3.59;95.51;98674.38;5066956;28;20036;-71
2022/12/23 01:40:59;;;;;;;0.40;0.40;;;;;;;3.59;95.89;98676.94;5066660;28;20029;-72
2022/12/23 01:43:49;;;;;;;0.50;0.50;;;;;;;3.54;96.01;98676.97;5066806;28;20085;-73
2022/12/23 01:46:15;;;;;;;0.50;0.50;;;;;;;3.49;95.86;98682.97;5066688;28;20027;-73
2022/12/23 01:48:44;;;;;;;0.50;0.50;;;;;;;3.41;95.80;98675.34;5066339;28;20076;-72
2022/12/23 01:51:18;;;;;;;0.47;0.47;;;;;;;3.45;95.62;98684.75;5066451;28;20025;-72
2022/12/23 01:53:49;;;;;;;0.50;0.50;;;;;;;3.46;95.75;98681.31;5066096;28;20158;-72
2022/12/23 01:56:22;;;;;;;0.70;0.70;;;;;;;3.49;95.69;98677.84;5066514;28;20504;-72
2022/12/23 01:58:59;;;;;;;0.50;0.50;;;;;;;3.44;95.91;98676.19;5066336;28;20034;-72
2022/12/23 02:04:14;;;;;;;0.50;0.50;;;;;;;3.39;95.82;98683.06;5066103;28;20088;-71
2022/12/23 02:09:29;;;;;;;0.50;0.50;;;;;;;3.39;95.76;98677.94;5066103;28;20064;-71
2022/12/23 02:12:20;;;;;;;0.50;0.50;;;;;;;3.38;95.89;98675.38;5066120;28;20032;-72
2022/12/23 02:18:35;;;;;;;0.50;0.50;;;;;;;3.29;96.10;98691.69;5066184;28;20044;-73
2022/12/23 02:21:34;;;;;;;0.50;0.50;;;;;;;3.20;95.85;98695.16;5065867;28;20025;-72
2022/12/23 02:24:21;;;;;;;0.47;0.47;;;;;;;3.17;95.59;98692.59;5065568;28;20024;-73
2022/12/23 02:27:08;;;;;;;0.50;0.50;;;;;;;3.14;95.94;98703.75;5066021;28;20043;-72
2022/12/23 02:30:11;;;;;;;0.50;0.50;;;;;;;3.07;95.83;98710.59;5065656;28;20052;-72
2022/12/23 02:33:00;;;;;;;0.45;0.45;;;;;;;3.03;95.65;98713.19;5066006;28;20113;-72
2022/12/23 02:35:51;;;;;;;0.50;0.50;;;;;;;2.97;95.79;98712.34;5065544;28;20131;-71
2022/12/23 02:38:30;;;;;;;0.45;0.45;;;;;;;2.96;96.04;98707.22;5065754;28;20021;-73
2022/12/23 02:41:18;;;;;;;0.50;0.50;;;;;;;2.97;96.24;98717.47;5065350;28;20021;-71
2022/12/23 02:43:47;;;;;;;0.50;0.50;;;;;;;2.93;96.10;98720.94;5065529;28;20052;-72
2022/12/23 02:46:24;;;;;;;0.50;0.50;;;;;;;2.87;95.80;98725.22;5065557;28;20037;-72
2022/12/23 02:48:50;;;;;;;0.40;0.40;;;;;;;2.89;95.76;98729.47;5065280;28;20099;-72
2022/12/23 02:51:15;;;;;;;0.50;0.50;;;;;;;2.91;96.03;98730.34;5065426;28;20037;-72
2022/12/23 02:53:55;;;;;;;0.50;0.50;;;;;;;2.85;95.91;98723.53;5065499;28;20063;-72
2022/12/23 02:56:24;;;;;;;0.50;0.50;;;;;;;2.82;95.81;98730.38;5065576;28;20028;-71
2022/12/23 02:59:16;;;;;;;0.50;0.50;;;;;;;2.76;95.69;98723.56;5065235;28;20021;-72
2022/12/23 03:01:43;;;;;;;0.50;0.50;;;;;;;2.70;95.43;98729.56;5065550;28;20029;-71
2022/12/23 03:04:08;;;;;;;0.50;0.50;;;;;;;2.65;95.48;98731.28;5064177;28;20055;-71
2022/12/23 03:06:40;;;;;;;0.50;0.50;;;;;;;2.66;95.72;98727.88;5065538;28;20044;-72
2022/12/23 03:09:07;;;;;;;0.50;0.50;;;;;;;2.57;95.74;98723.63;5065057;28;20040;-71
2022/12/23 03:11:49;;;;;;;0.50;0.50;;;;;;;2.59;95.70;98732.16;5065286;28;20032;-72
2022/12/23 03:14:35;;;;;;;0.50;0.50;;;;;;;2.55;95.57;98739.84;5065141;28;20025;-72
2022/12/23 03:17:03;;;;;;;0.50;0.50;;;;;;;2.52;95.41;98748.41;5065109;28;20021;-71
2022/12/23 03:19:31;;;;;;;0.50;0.50;;;;;;;2.47;95.50;98748.44;5064913;28;20437;-71
2022/12/23 03:22:06;;;;;;;0.50;0.50;;;;;;;2.41;95.48;98745.84;5065141;28;20032;-72
2022/12/23 03:24:52;;;;;;;0.50;0.50;;;;;;;2.33;95.28;98752.72;5064978;28;20074;-71
2022/12/23 03:27:32;;;;;;;0.50;0.50;;;;;;;2.24;95.20;98743.31;5065276;28;20086;-71
2022/12/23 03:30:08;;;;;;;0.50;0.50;;;;;;;2.25;95.25;98757.00;5064889;28;20409;-71
2022/12/23 03:32:54;;;;;;;0.50;0.50;;;;;;;2.20;95.40;98755.31;5065070;28;20020;-71
2022/12/23 03:35:25;;;;;;;0.50;0.50;;;;;;;2.13;95.09;98753.59;5064910;28;20032;-71
2022/12/23 03:37:53;;;;;;;0.60;0.60;;;;;;;2.07;95.10;98764.69;5063694;28;20032;-72
2022/12/23 03:40:25;;;;;;;0.50;0.50;;;;;;;2.03;95.05;98770.66;5064852;28;20032;-73
2022/12/23 03:43:17;;;;;;;0.60;0.60;;;;;;;2.06;95.35;98767.25;5064931;28;20021;-72
2022/12/23 03:45:52;;;;;;;0.60;0.60;;;;;;;2.05;95.64;98768.94;5064866;28;20040;-72
2022/12/23 03:48:34;;;;;;;0.50;0.50;;;;;;;2.01;95.74;98766.38;5064719;28;20053;-72
2022/12/23 03:51:18;;;;;;;0.50;0.50;;;;;;;2.03;95.67;98787.72;5064597;28;20021;-72
2022/12/23 03:53:55;;;;;;;0.50;0.50;;;;;;;2.00;95.34;98777.50;5063449;28;20036;-71
2022/12/23 03:56:27;;;;;;;0.50;0.50;;;;;;;2.00;95.57;98782.63;5064811;28;20447;-71
2022/12/23 03:59:01;;;;;;;0.60;0.60;;;;;;;1.96;95.70;98784.31;5064759;28;20036;-71
2022/12/23 04:01:29;;;;;;;0.50;0.50;;;;;;;2.00;95.61;98790.28;5064484;28;20059;-73
2022/12/23 04:04:01;;;;;;;0.50;0.50;;;;;;;1.96;95.61;98782.63;5064741;28;20017;-71
2022/12/23 04:06:35;;;;;;;0.60;0.60;;;;;;;1.91;95.61;98789.44;5064580;28;20036;-71
2022/12/23 04:09:04;;;;;;;0.70;0.70;;;;;;;1.88;95.40;98793.69;5064492;28;20028;-71
2022/12/23 04:11:29;;;;;;;0.43;0.43;;;;;;;1.69;95.05;98789.38;5063343;28;20129;-71
2022/12/23 04:13:55;;;;;;;0.50;0.50;;;;;;;1.69;95.02;98793.66;5064474;28;20025;-70
2022/12/23 04:16:21;;;;;;;0.50;0.50;;;;;;;1.61;94.82;98797.03;5066919;28;20028;-71
2022/12/23 04:18:46;;;;;;;0.52;0.52;;;;;;;1.55;94.52;98794.47;5068342;28;20029;-72
2022/12/23 04:21:11;;;;;;;0.50;0.50;;;;;;;1.40;94.37;98792.75;5068174;28;20021;-71
2022/12/23 04:23:39;;;;;;;0.50;0.50;;;;;;;1.33;94.78;98801.22;5068214;28;20465;-71
2022/12/23 04:26:04;;;;;;;0.50;0.50;;;;;;;1.27;94.80;98796.09;5068057;28;20056;-71
2022/12/23 04:28:29;;;;;;;0.50;0.50;;;;;;;1.30;95.07;98803.78;5067036;28;20028;-72
2022/12/23 04:30:55;;;;;;;0.50;0.50;;;;;;;1.38;94.95;98812.34;5067912;28;20060;-72
2022/12/23 04:33:20;;;;;;;0.50;0.50;;;;;;;1.42;95.25;98818.31;5068113;28;20028;-73
2022/12/23 04:35:46;;;;;;;0.50;0.50;;;;;;;1.51;95.40;98820.03;5067749;28;20154;-72
2022/12/23 04:38:11;;;;;;;0.50;0.50;;;;;;;1.54;95.56;98820.06;5068133;28;20025;-72
2022/12/23 04:40:36;;;;;;;0.50;0.50;;;;;;;1.59;95.52;98815.81;5068033;28;20025;-71
2022/12/23 04:43:02;;;;;;;0.50;0.50;;;;;;;1.62;95.71;98813.25;5067881;28;20036;-71
2022/12/23 04:45:27;;;;;;;0.50;0.50;;;;;;;1.69;95.83;98824.38;5067688;28;20524;-71
2022/12/23 04:47:54;;;;;;;0.50;0.50;;;;;;;1.71;95.75;98828.63;5067662;28;20070;-72
2022/12/23 04:50:19;;;;;;;0.50;0.50;;;;;;;1.74;95.70;98832.91;5067358;28;20021;-72
2022/12/23 04:52:44;;;;;;;0.50;0.50;;;;;;;1.72;95.32;98829.50;5067860;28;20035;-71
2022/12/23 04:55:10;;;;;;;0.50;0.50;;;;;;;1.59;94.91;98834.59;5067421;28;20025;-71
2022/12/23 04:57:36;;;;;;;0.50;0.50;;;;;;;1.44;94.58;98845.59;5067561;28;20028;-71
2022/12/23 05:00:02;;;;;;;0.50;0.50;;;;;;;1.39;94.84;98851.56;5067607;28;20021;-72
2022/12/23 05:02:28;;;;;;;0.60;0.60;;;;;;;1.37;95.01;98854.13;5067693;28;20021;-71
2022/12/23 05:04:53;;;;;;;0.60;0.60;;;;;;;1.35;95.43;98853.25;5067234;28;20039;-71
2022/12/23 05:07:19;;;;;;;0.50;0.50;;;;;;;1.39;95.58;98851.56;5067532;28;20047;-72
2022/12/23 05:09:44;;;;;;;0.60;0.60;;;;;;;1.36;95.51;98853.25;5067321;28;20032;-71
2022/12/23 05:12:09;;;;;;;0.57;0.57;;;;;;;1.39;95.25;98847.28;5067415;28;20036;-72
2022/12/23 05:14:35;;;;;;;0.50;0.50;;;;;;;1.34;95.22;98857.50;5067170;28;20035;-71
2022/12/23 05:17:00;;;;;;;0.50;0.50;;;;;;;1.29;94.98;98866.88;5067333;28;20118;-72
2022/12/23 05:19:26;;;;;;;0.60;0.60;;;;;;;1.28;95.04;98870.25;5065681;28;20080;-70
2022/12/23 05:21:51;;;;;;;0.60;0.60;;;;;;;1.31;95.18;98869.44;5067310;28;20017;-72
2022/12/23 05:24:16;;;;;;;0.50;0.50;;;;;;;1.40;95.24;98866.91;5067184;28;20089;-71
2022/12/23 05:26:42;;;;;;;0.60;0.60;;;;;;;1.37;95.36;98872.00;5066519;28;20029;-71
2022/12/23 05:29:07;;;;;;;0.50;0.50;;;;;;;1.31;94.70;98872.00;5066825;28;20028;-72
2022/12/23 05:31:32;;;;;;;0.50;0.50;;;;;;;1.33;94.77;98875.38;5067015;28;20457;-72
2022/12/23 05:33:58;;;;;;;0.50;0.50;;;;;;;1.28;95.24;98875.38;5066927;28;20020;-71
2022/12/23 05:36:23;;;;;;;0.50;0.50;;;;;;;1.30;95.25;98875.38;5066764;28;20021;-71
2022/12/23 05:38:48;;;;;;;0.50;0.50;;;;;;;1.33;95.00;98883.91;5066873;28;20024;-71
2022/12/23 05:41:17;;;;;;;0.50;0.50;;;;;;;1.40;95.01;98886.50;5066834;28;20017;-71
2022/12/23 05:43:42;;;;;;;0.55;0.55;;;;;;;1.42;95.33;98883.09;5066692;28;20080;-71
2022/12/23 05:46:08;;;;;;;0.60;0.60;;;;;;;1.47;95.57;98888.25;5066760;28;20055;-72
2022/12/23 05:48:33;;;;;;;0.50;0.50;;;;;;;1.33;95.59;98875.38;5066687;28;20053;-72
2022/12/23 05:50:58;;;;;;;0.60;0.60;;;;;;;1.41;94.97;98890.75;5066469;28;20055;-71
2022/12/23 05:53:24;;;;;;;0.60;0.60;;;;;;;1.43;94.67;98889.94;5066591;28;20074;-71
2022/12/23 05:55:49;;;;;;;0.68;0.68;;;;;;;1.41;94.85;98890.75;5065055;28;20025;-70
2022/12/23 05:58:15;;;;;;;0.60;0.60;;;;;;;1.39;94.58;98893.31;5067311;28;20021;-70
2022/12/23 06:00:40;;;;;;;0.50;0.50;;;;;;;1.33;94.67;98890.72;5066424;28;20020;-70
2022/12/23 06:03:06;;;;;;;0.50;0.50;;;;;;;1.35;94.19;98902.69;5066414;28;20467;-70
2022/12/23 06:05:31;;;;;;;0.50;0.50;;;;;;;1.32;94.42;98912.03;5066066;28;20375;-70
2022/12/23 06:07:57;;;;;;;0.60;0.60;;;;;;;1.33;94.58;98923.97;5066424;28;20044;-71
2022/12/23 06:10:23;;;;;;;0.60;0.60;;;;;;;1.28;94.75;98911.16;5065035;28;20515;-70
2022/12/23 06:12:48;;;;;;;0.50;0.50;;;;;;;1.33;94.71;98923.97;5066360;28;20108;-71
2022/12/23 06:15:14;;;;;;;0.60;0.60;;;;;;;1.39;94.93;98925.72;5065981;28;20055;-70
2022/12/23 06:17:40;;;;;;;0.55;0.55;;;;;;;1.35;94.86;98930.81;5066205;28;20035;-71
2022/12/23 06:20:06;;;;;;;0.60;0.60;;;;;;;1.26;94.87;98918.00;5065858;28;20033;-71
2022/12/23 06:22:31;;;;;;;0.50;0.50;;;;;;;1.39;94.97;98944.47;5065955;28;20066;-70
2022/12/23 06:24:57;;;;;;;0.50;0.50;;;;;;;1.41;94.79;98942.78;5065846;28;20056;-70
2022/12/23 06:27:22;;;;;;;0.50;0.50;;;;;;;1.41;94.93;98947.03;5065848;28;20025;-70
2022/12/23 06:29:48;;;;;;;0.50;0.50;;;;;;;1.41;95.06;98959.81;5065757;28;20029;-71
2022/12/23 06:32:13;;;;;;;0.50;0.50;;;;;;;1.44;95.23;98958.13;5065864;28;20027;-71
2022/12/23 06:34:39;;;;;;;0.50;0.50;;;;;;;1.46;95.34;98965.81;5065460;28;20049;-70
2022/12/23 06:37:04;;;;;;;0.50;0.50;;;;;;;1.39;95.17;98953.84;5065749;28;20025;-72
2022/12/23 06:39:30;;;;;;;0.50;0.50;;;;;;;1.45;95.36;98980.28;5065524;28;20032;-70
2022/12/23 06:41:55;;;;;;;0.50;0.50;;;;;;;1.48;95.44;98976.91;5065616;28;20067;-71
2022/12/23 06:44:20;;;;;;;0.50;0.50;;;;;;;1.51;95.20;98988.88;5065579;28;20044;-71
2022/12/23 06:46:46;;;;;;;0.50;0.50;;;;;;;1.51;95.20;98983.75;5065380;28;20028;-71
2022/12/23 06:49:11;;;;;;;0.50;0.50;;;;;;;1.50;95.33;98995.69;5065678;28;20029;-72
2022/12/23 06:51:36;;;;;;;0.60;0.60;;;;;;;1.47;95.32;98988.84;5063876;28;20025;-71
2022/12/23 06:54:02;;;;;;;0.50;0.50;;;;;;;1.38;95.39;98993.91;5064046;28;20029;-70
2022/12/23 06:56:27;;;;;;;0.50;0.50;;;;;;;1.34;94.81;99007.53;5065425;28;20032;-70
2022/12/23 06:58:53;;;;;;;0.50;0.50;;;;;;;1.32;94.77;99006.66;5065371;28;20064;-70
2022/12/23 07:01:19;;;;;;;0.60;0.60;;;;;;;1.28;94.92;99012.59;5065346;28;20025;-70
2022/12/23 07:03:45;;;;;;;0.50;0.50;;;;;;;1.19;94.99;99013.38;5065271;28;20083;-70
2022/12/23 07:06:10;;;;;;;0.50;0.50;;;;;;;1.17;94.61;99009.94;5065181;28;20021;-71
2022/12/23 07:08:36;;;;;;;0.50;0.50;;;;;;;1.19;94.87;99019.34;5065279;28;20330;-70
2022/12/23 07:11:02;;;;;;;0.60;0.60;;;;;;;1.20;94.97;99020.19;5065119;28;20059;-71
2022/12/23 07:13:28;;;;;;;0.60;0.60;;;;;;;1.15;94.86;99022.72;5065106;28;20036;-70
2022/12/23 07:15:54;;;;;;;0.52;0.52;;;;;;;1.13;94.70;99024.44;5065026;28;20024;-70
2022/12/23 07:18:24;;;;;;;0.50;0.50;;;;;;;1.06;94.26;99020.09;5065296;28;20669;-70
2022/12/23 07:20:50;;;;;;;0.60;0.60;;;;;;;1.05;94.05;99026.94;5064969;28;20021;-71
2022/12/23 07:23:16;;;;;;;0.50;0.50;;;;;;;1.08;94.26;99034.63;5065259;28;20032;-70
2022/12/23 07:25:42;;;;;;;0.50;0.50;;;;;;;1.07;94.09;99032.06;5065015;28;20024;-71
2022/12/23 07:28:07;;;;;;;0.50;0.50;;;;;;;1.02;94.39;99034.56;5065062;28;20021;-71
2022/12/23 07:30:33;;;;;;;0.50;0.50;;;;;;;1.03;94.27;99038.84;5063784;28;20025;-71
2022/12/23 07:32:58;;;;;;;0.50;0.50;;;;;;;1.01;94.29;99034.56;5064809;28;20082;-71
2022/12/23 07:35:24;;;;;;;0.50;0.50;;;;;;;1.08;94.70;99038.88;5064609;28;20061;-72
2022/12/23 07:37:51;;;;;;;0.60;0.60;;;;;;;1.04;94.83;99043.09;5063893;28;20041;-71
2022/12/23 07:40:17;;;;;;;0.45;0.45;;;;;;;1.05;94.69;99056.72;5065001;28;20396;-71
2022/12/23 07:42:42;;;;;;;0.60;0.60;;;;;;;1.09;94.73;99071.25;5064955;28;20430;-71
2022/12/23 07:45:08;;;;;;;0.60;0.60;;;;;;;1.07;94.69;99072.94;5064622;28;20167;-71
2022/12/23 07:47:34;;;;;;;0.50;0.50;;;;;;;0.95;94.46;99066.00;5064653;28;20437;-71
2022/12/23 07:49:59;;;;;;;0.50;0.50;;;;;;;0.94;95.04;99080.47;5064861;28;20033;-70
2022/12/23 07:52:25;;;;;;;0.50;0.50;;;;;;;0.92;94.71;99079.63;5069066;28;20089;-70
2022/12/23 07:54:50;;;;;;;0.57;0.57;;;;;;;0.85;94.70;99076.16;5068753;28;20488;-70
2022/12/23 07:57:15;;;;;;;0.50;0.50;;;;;;;0.81;94.62;99086.34;5068677;28;20036;-70
2022/12/23 07:59:41;;;;;;;0.50;0.50;;;;;;;0.73;94.73;99091.38;5068590;28;20024;-69
2022/12/23 08:02:09;;;;;;;0.60;0.60;;;;;;;0.66;94.63;99095.53;5068673;28;20033;-70
2022/12/23 08:04:34;;;;;;;0.60;0.60;;;;;;;0.53;94.27;99094.56;5068360;28;20025;-69
2022/12/23 08:07:00;;;;;;;0.55;0.55;;;;;;;0.53;94.47;99103.94;5068743;28;20021;-69
2022/12/23 08:09:25;;;;;;;0.50;0.50;;;;;;;0.47;94.54;99100.47;5068333;28;20040;-70
2022/12/23 08:11:50;;;;;;;0.55;0.55;;;;;;;0.43;94.48;99114.00;5068362;28;20025;-71
2022/12/23 08:14:16;;;;;;;0.50;0.50;;;;;;;0.39;94.37;99108.84;5068393;28;20047;-70
2022/12/23 08:16:41;;;;;;;0.50;0.50;;;;;;;0.28;94.55;99113.81;5068524;28;20025;-71
2022/12/23 08:19:07;;;;;;;0.50;0.50;;;;;;;0.26;94.64;99113.81;5068334;28;20469;-70
2022/12/23 08:21:32;;;;;;;0.50;0.50;;;;;;;0.19;94.77;99114.59;5068091;28;20032;-70
2022/12/23 08:23:57;;;;;;;0.50;0.50;;;;;;;0.15;94.86;99118.78;5068280;28;20036;-70
2022/12/23 08:26:23;;;;;;;0.60;0.60;;;;;;;0.11;94.92;99111.94;5068064;28;20028;-70
2022/12/23 08:28:52;;;;;;;0.60;0.60;;;;;;;0.05;95.12;99115.25;5068134;28;20024;-72
2022/12/23 08:31:20;;;;;;;0.50;0.50;;;;;;;0.06;95.05;99105.91;5068093;28;20021;-70
2022/12/23 08:33:47;;;;;;;0.55;0.55;;;;;;;0.03;95.10;99127.16;5068174;28;20064;-70
2022/12/23 08:36:16;;;;;;;0.57;0.57;;;;;;;0.02;95.16;99130.50;5067794;28;20024;-71
2022/12/23 08:38:41;;;;;;;0.60;0.60;;;;;;;-0.01;95.01;99126.22;5068114;28;20089;-71
2022/12/23 08:41:11;;;;;;;0.50;0.50;;;;;;;-0.03;95.19;99127.91;5067741;28;20115;-71
2022/12/23 08:43:38;;;;;;;0.60;0.60;;;;;;;-0.06;95.27;99132.09;5067904;28;20377;-71
2022/12/23 08:46:04;;;;;;;0.50;0.50;;;;;;;-0.05;95.14;99134.66;5067667;28;20032;-70
2022/12/23 08:48:30;;;;;;;0.60;0.60;;;;;;;-0.06;94.93;99127.00;5067590;28;20204;-70
2022/12/23 08:50:56;;;;;;;0.50;0.50;;;;;;;-0.01;95.32;99133.88;5067317;28;20091;-71
2022/12/23 08:53:21;;;;;;;0.52;0.52;;;;;;;-0.01;95.29;99140.69;5067687;28;20025;-71
2022/12/23 08:55:47;;;;;;;0.50;0.50;;;;;;;-0.03;95.08;99150.88;5067498;28;20021;-70
2022/12/23 08:58:14;;;;;;;0.50;0.50;;;;;;;0.03;95.29;99156.91;5067631;28;20048;-71
2022/12/23 09:00:40;;;;;;;1.77;1.67;;;;;;;0.12;95.32;99159.56;5067579;28;20084;-71
2022/12/23 09:03:06;;;;;;;0.55;0.55;;;;;;;0.24;95.57;99156.31;5064820;28;20031;-71
2022/12/23 09:05:32;;;;;;;0.50;0.50;;;;;;;0.32;95.81;99154.72;5065866;28;20025;-71
2022/12/23 09:07:58;;;;;;;0.50;0.50;;;;;;;0.51;96.03;99172.00;5067223;28;20461;-70
2022/12/23 09:10:24;;;;;;;0.50;0.50;;;;;;;0.86;96.30;99169.00;5065594;28;20166;-72
2022/12/23 09:12:50;;;;;;;0.50;0.50;;;;;;;1.72;96.70;99160.44;5067328;28;20056;-71
2022/12/23 09:15:16;;;;;;;0.50;0.50;;;;;;;2.72;95.54;99175.47;5067127;28;20115;-70
2022/12/23 09:17:42;;;;;;;0.50;0.50;;;;;;;3.59;93.32;99172.25;5066967;28;20100;-71
2022/12/23 09:20:07;;;;;;;0.50;0.50;;;;;;;3.86;90.51;99183.38;5066818;28;20040;-71
2022/12/23 09:22:33;;;;;;;0.50;0.50;;;;;;;3.78;89.62;99173.09;5067225;28;20021;-71
2022/12/23 09:24:59;;;;;;;0.50;0.50;;;;;;;3.47;88.15;99186.78;5067033;28;20061;-70
2022/12/23 09:27:24;;;;;;;0.50;0.50;;;;;;;2.92;87.75;99187.53;5066891;28;20029;-71
2022/12/23 09:29:50;;;;;;;0.50;0.50;;;;;;;2.42;87.85;99203.53;5066776;28;20027;-71
2022/12/23 09:32:15;;;;;;;0.50;0.50;;;;;;;2.10;89.37;99194.81;5067146;28;20056;-70
2022/12/23 09:34:41;;;;;;;0.55;0.55;;;;;;;1.90;89.39;99183.59;5066450;28;20024;-69
2022/12/23 09:37:06;;;;;;;0.50;0.50;;;;;;;1.65;89.25;99191.91;5066863;28;20134;-71
2022/12/23 09:39:32;;;;;;;0.60;0.60;;;;;;;1.35;89.69;99194.22;5066732;28;20059;-71
2022/12/23 09:42:10;;;;;;;0.50;0.50;;;;;;;1.17;90.45;99194.88;5065482;28;20029;-71
2022/12/23 09:45:09;;;;;;;0.50;0.50;;;;;;;1.05;90.77;99205.84;5066813;28;20029;-70
2022/12/23 09:47:36;;;;;;;0.50;0.50;;;;;;;0.96;90.95;99192.94;5066634;28;20493;-71
2022/12/23 09:50:11;;;;;;;0.50;0.50;;;;;;;0.90;91.10;99201.41;5066477;28;20021;-69
2022/12/23 09:53:03;;;;;;;0.60;0.60;;;;;;;0.88;91.83;99207.38;5066701;28;20039;-70
2022/12/23 09:55:54;;;;;;;0.60;0.60;;;;;;;0.90;92.21;99198.84;5056005;28;20033;-71
2022/12/23 09:58:31;;;;;;;0.50;0.50;;;;;;;0.83;92.15;99209.88;5065065;28;20025;-71
2022/12/23 10:01:19;;;;;;;0.50;0.50;;;;;;;0.84;92.45;99211.56;5066400;28;20025;-71
2022/12/23 10:04:09;;;;;;;0.60;0.60;;;;;;;0.82;92.79;99206.44;5066028;28;20037;-72
2022/12/23 10:06:37;;;;;;;0.50;0.50;;;;;;;0.83;92.80;99199.63;5066194;28;20050;-71
2022/12/23 10:09:06;;;;;;;0.50;0.50;;;;;;;0.81;92.59;99201.31;5066350;28;20025;-72
2022/12/23 10:11:38;;;;;;;0.60;0.60;;;;;;;0.67;92.53;99199.44;5066257;28;20036;-71
2022/12/23 10:14:15;;;;;;;0.50;0.50;;;;;;;0.67;92.63;99209.66;5065722;28;20021;-70
2022/12/23 10:16:45;;;;;;;0.50;0.50;;;;;;;0.65;92.81;99213.91;5066173;28;20104;-71
2022/12/23 10:19:25;;;;;;;0.60;0.60;;;;;;;0.64;92.95;99219.84;5066266;28;20025;-73
2022/12/23 10:22:05;;;;;;;0.50;0.50;;;;;;;0.65;92.95;99229.22;5065863;28;20041;-70
2022/12/23 10:24:38;;;;;;;0.50;0.50;;;;;;;0.66;93.28;99240.28;5066063;28;20446;-71
2022/12/23 10:27:22;;;;;;;0.50;0.50;;;;;;;0.72;93.30;99243.78;5065960;28;20063;-71
2022/12/23 10:29:48;;;;;;;0.50;0.50;;;;;;;0.77;93.55;99240.44;5065941;28;20021;-72
2022/12/23 10:32:21;;;;;;;0.60;0.60;;;;;;;0.73;93.19;99237.00;5065760;28;20024;-71
2022/12/23 10:35:11;;;;;;;0.50;0.50;;;;;;;0.69;93.15;99243.75;5065534;28;20039;-70
2022/12/23 10:37:50;;;;;;;0.50;0.50;;;;;;;0.58;92.87;99241.06;5065485;28;20043;-71
2022/12/23 10:40:38;;;;;;;0.50;0.50;;;;;;;0.52;92.83;99237.56;5065659;28;20024;-71
2022/12/23 10:43:28;;;;;;;0.50;0.50;;;;;;;0.49;92.72;99241.81;5061967;28;20116;-71
2022/12/23 10:46:24;;;;;;;0.52;0.52;;;;;;;0.46;92.80;99240.88;5065445;28;20032;-70
2022/12/23 10:49:24;;;;;;;0.50;0.50;;;;;;;0.41;92.79;99242.50;5065415;28;20053;-70
2022/12/23 10:51:54;;;;;;;0.50;0.50;;;;;;;0.47;93.32;99242.59;5058208;28;20033;-70
2022/12/23 10:54:32;;;;;;;0.60;0.60;;;;;;;0.71;94.05;99248.88;5065565;28;20071;-72
2022/12/23 10:56:58;;;;;;;0.50;0.50;;;;;;;0.79;94.05;99249.84;5065535;28;20029;-71
2022/12/23 10:59:26;;;;;;;0.50;0.50;;;;;;;0.89;93.59;99268.72;5065546;28;20032;-71
2022/12/23 11:02:02;;;;;;;0.50;0.50;;;;;;;1.00;94.13;99268.84;5065388;28;20468;-71
2022/12/23 11:04:34;;;;;;;0.50;0.50;;;;;;;1.02;93.52;99273.97;5065361;28;20031;-71
2022/12/23 11:07:00;;;;;;;;;;;;;;;0.97;92.96;99272.22;5065586;28;20025;-72
2022/12/23 11:09:36;;;;;;;0.60;0.60;;;;;;;0.87;92.86;99275.50;5065077;28;19909;-70
2022/12/23 11:12:08;;;;;;;0.50;0.50;;;;;;;0.79;92.97;99274.53;5065259;28;20049;-71
2022/12/23 11:14:40;;;;;;;0.70;0.70;;;;;;;0.78;92.85;99283.03;5065279;28;20483;-70
2022/12/23 11:17:27;;;;;;;0.52;0.52;;;;;;;0.65;92.58;99280.31;5065147;28;20039;-72
2022/12/23 11:20:04;;;;;;;0.50;0.50;;;;;;;0.63;92.35;99281.97;5064848;28;20029;-69
2022/12/23 11:22:30;;;;;;;0.50;0.50;;;;;;;0.57;92.61;99284.47;5065124;28;20029;-71
2022/12/23 11:25:19;;;;;;;0.50;0.50;;;;;;;0.64;92.64;99288.81;5064183;28;20078;-70
2022/12/23 11:27:45;;;;;;;0.52;0.52;;;;;;;0.52;91.98;99284.41;5065028;28;20029;-71
2022/12/23 11:30:18;;;;;;;0.50;0.50;;;;;;;0.49;92.14;99292.88;5064826;28;20025;-70
2022/12/23 11:32:43;;;;;;;0.50;0.50;;;;;;;0.54;92.57;99289.53;5063731;28;20392;-71
2022/12/23 11:35:31;;;;;;;0.60;0.60;;;;;;;0.63;92.70;99304.97;5064751;28;20037;-71
2022/12/23 11:37:59;;;;;;;0.50;0.50;;;;;;;0.57;92.49;99300.66;5064928;28;20044;-71
2022/12/23 11:40:28;;;;;;;0.50;0.50;;;;;;;0.60;92.49;99307.50;5064698;28;20040;-67
2022/12/23 11:43:00;;;;;;;0.50;0.50;;;;;;;0.54;92.45;99292.94;5064752;28;20041;-68
2022/12/23 11:45:28;;;;;;;0.57;0.57;;;;;;;0.57;92.09;99307.44;5064566;28;20048;-68
2022/12/23 11:47:55;;;;;;;0.50;0.50;;;;;;;0.46;92.10;99322.63;5064658;28;20055;-67
2022/12/23 11:50:34;;;;;;;0.50;0.50;;;;;;;0.48;91.99;99326.03;5064533;28;20037;-69
2022/12/23 11:53:19;;;;;;;0.57;0.57;;;;;;;0.55;92.07;99329.53;5064959;28;20036;-68
2022/12/23 11:55:56;;;;;;;0.57;0.57;;;;;;;0.56;92.09;99323.63;5064570;28;20468;-69
2022/12/23 11:58:23;;;;;;;0.50;0.50;;;;;;;0.56;92.09;99328.72;5064732;28;20456;-68
2022/12/23 12:00:56;;;;;;;0.60;0.60;;;;;;;0.47;91.85;99330.28;5064754;28;20053;-68
2022/12/23 12:03:27;;;;;;;0.50;0.50;;;;;;;0.33;91.34;99316.44;5064827;28;20056;-68
2022/12/23 12:05:58;;;;;;;0.50;0.50;;;;;;;0.38;91.18;99336.94;5064614;28;20045;-68
2022/12/23 12:08:34;;;;;;;0.70;0.70;;;;;;;0.33;91.04;99337.75;5064831;28;20029;-68
2022/12/23 12:11:16;;;;;;;0.60;0.60;;;;;;;0.31;91.00;99341.97;5064440;28;20274;-67
2022/12/23 12:13:43;;;;;;;0.60;0.60;;;;;;;0.21;90.84;99333.28;5064412;28;20028;-68
2022/12/23 12:16:15;;;;;;;0.50;0.50;;;;;;;0.21;90.74;99343.50;5064525;28;20037;-68
2022/12/23 12:18:43;;;;;;;0.60;0.60;;;;;;;0.17;90.89;99339.19;5064784;28;20031;-68
2022/12/23 12:21:20;;;;;;;0.50;0.50;;;;;;;0.11;90.92;99347.59;5064491;28;20021;-66